KLCH/LCH METAR and TAF weather

Enter ICAO airport designator
Station Type Date Time Source
KLCH METAR 2020/06/03 14:53 UTC NOAA

KLCH 031453Z 10006KT 10SM FEW015 28/25 A3003 RMK AO2 SLP175 T02780250 50006


Station Type Date Time Source
KLCH Decoded METAR 2020/06/03 14:53 UTC NOAA

LAKE CHARLES REGIONAL AIRPORT , LA, United States (KLCH) 30-12N 093-23W 3M
Jun 03, 2020 - 10:53 AM EDT / 2020.06.03 1453 UTC
Wind: from the E (100 degrees) at 7 MPH (6 KT):0
Visibility: 10 mile(s):0
Sky conditions: mostly clear
Temperature: 82.0 F (27.8 C)
Dew Point: 77.0 F (25.0 C)
Relative Humidity: 84%
Pressure (altimeter): 30.03 in. Hg (1016 hPa)
Pressure tendency: 0.02 inches (0.6 hPa) higher than three hours ago
ob: KLCH 031453Z 10006KT 10SM FEW015 28/25 A3003 RMK AO2 SLP175 T02780250 50006
cycle: 15

Station Type Date Time Source
KLCH TAF 2020/06/03 12:36 UTC NOAA

TAF KLCH 031134Z 0312/0412 00000KT P6SM BKN150
FM031400 11006KT P6SM SCT015 BKN150
FM031900 16008KT P6SM VCTS FEW025CB BKN040
FM040100 15004KT P6SM FEW050 BKN200

Example: see airport list